This is the latest recevied weather packets stored in our database for station/object s55g-5. If no packets are shown the sender has not sent any weather packets the latest 10 day(s).
| Time | Temp. | Humidity | Pressure | Rain* | Wind** | Luminosity | Snow |
|---|---|---|---|---|---|---|---|
| 1777212545 | 27.22° C | 39% | 1017.7 hPa | 0 mm | - | - | - |
| 1777208044 | 26.11° C | 38% | 1017.5 hPa | 0 mm | - | - | - |
| 1777205344 | 26.67° C | 40% | 1017.7 hPa | 0 mm | - | - | - |
| 1777204804 | 27.78° C | 40% | 1017.8 hPa | 0 mm | - | - | - |
| 1777204577 | 27.78° C | 40% | 1017.6 hPa | 0 mm | - | - | - |
| 1777202284 | 26.67° C | 39% | 1017.7 hPa | 0 mm | - | - | - |
| 1777201744 | 26.11° C | 38% | 1017.7 hPa | 0 mm | - | - | - |
| 1777201337 | 26.11° C | 35% | 1017.9 hPa | 0 mm | - | - | - |
| 1777197604 | 25.56° C | 45% | 1018.1 hPa | 0 mm | - | - | - |
| 1777196704 | 25.56° C | 44% | 1018.1 hPa | 0 mm | - | - | - |
| 1777194139 | 24.44° C | 41% | 1018 hPa | 0 mm | - | - | - |
| 1777193644 | 23.89° C | 43% | 1018.1 hPa | 0 mm | - | - | - |
| 1777192564 | 22.78° C | 43% | 1018.1 hPa | 0 mm | - | - | - |
| 1777190404 | 20.56° C | 52% | 1017.9 hPa | 0 mm | - | - | - |
| 1777188964 | 20° C | 55% | 1017.8 hPa | 0 mm | - | - | - |
| 1777179604 | 8.33° C | 87% | 1016.9 hPa | 0 mm | - | - | - |
| 1777173617 | 6.67° C | 92% | 1016.1 hPa | 0 mm | - | - | - |
| 1777172944 | 6.67° C | 92% | 1016.1 hPa | 0 mm | - | - | - |
| 1777168804 | 7.22° C | 91% | 1016.2 hPa | 0 mm | - | - | - |
| 1777166824 | 8.33° C | 88% | 1015.9 hPa | 0 mm | - | - | - |
| 1777165204 | 7.22° C | 91% | 1016.1 hPa | 0 mm | - | - | - |
| 1777163764 | 7.78° C | 87% | 1016.3 hPa | 0 mm | - | - | - |
| 1777161244 | 7.78° C | 88% | 1016.5 hPa | 0 mm | - | - | - |
| 1777160164 | 8.33° C | 89% | 1016.5 hPa | 0 mm | - | - | - |
| 1777157644 | 8.33° C | 88% | 1016.5 hPa | 0 mm | - | - | - |
* Rain latest hour (hover to see other rain measurements)
** Current wind speed in m/s (hover to see current wind gust speed)